Kimberly Turecamo — WDC6838 — position and weather

sailwx.info

Track history (hours):
 
Tides and Currents Weather Stations Pressure Air Temp Water Temp Dewpoint Dewpoint Depression Visibility Wind Speed Wind Dir Waves Ship Positions

Kimberly Turecamo

Owner: Moran Towing Corporation, New Canaan, CT. More information available from US FCC via Universal Licensing System and Coast Guard Vessel Documentation Center.

Last reported at 2016-Jun-25 00:11 UTC. Time now 2016-Jun-25 03:33 UTC.
Position N 40°38' W 074°08'.

Length 33 m; draft 5 m.

Type: Towing. MMSI: 367061980.

Date/timePositionNaut miles runAvg speedWind from/ knotsBaromVisibWave heightAir tempDewpointWater temp
2016-Jun-25 00:11N 40°38' W 074°08'3 5.1
2016-Jun-24 23:33N 40°42' W 074°08'1 0.9
2016-Jun-24 22:33N 40°41' W 074°08'2 2.1
2016-Jun-24 21:33N 40°39' W 074°07'1 1.0
2016-Jun-24 20:30N 40°38' W 074°08'0 0.0
2016-Jun-24 19:33N 40°38' W 074°08'0 0.0
2016-Jun-24 18:33N 40°38' W 074°08'0 0.0
2016-Jun-24 17:33N 40°38' W 074°08'0 0.0
2016-Jun-24 16:33N 40°38' W 074°08'0 0.0
2016-Jun-24 15:33N 40°38' W 074°08'0 0.0
2016-Jun-24 14:27N 40°38' W 074°08'0 0.0
2016-Jun-24 13:33N 40°38' W 074°08'0 0.0
2016-Jun-24 12:33N 40°38' W 074°08'0 0.0
2016-Jun-24 11:33N 40°38' W 074°08'0 0.0
2016-Jun-24 10:33N 40°38' W 074°08'0 0.0
2016-Jun-24 09:33N 40°38' W 074°08'0 0.0
2016-Jun-24 08:33N 40°38' W 074°08'0 0.0
2016-Jun-24 07:33N 40°38' W 074°08'4 1.3
2016-Jun-24 04:25N 40°37' W 074°12'1 0.2
2016-Jun-24 00:09N 40°36' W 074°12'5 7.5
2016-Jun-23 23:34N 40°39' W 074°08'0 0.0
2016-Jun-23 21:25N 40°38' W 074°08'2 2.7
2016-Jun-23 20:33N 40°39' W 074°05'2 2.2
2016-Jun-23 19:31N 40°38' W 074°08'0 0.0
2016-Jun-23 18:31N 40°38' W 074°08'0 0.0
2016-Jun-23 17:28N 40°38' W 074°08'0 0.0
2016-Jun-23 16:28N 40°38' W 074°08'5 5.5
2016-Jun-23 15:32N 40°40' W 074°01'0 0.2
2016-Jun-23 14:33N 40°40' W 074°01'6 0.5
2016-Jun-23 01:22N 40°39' W 074°09'1 0.4
2016-Jun-22 23:32N 40°40' W 074°08'1 1.1
2016-Jun-22 22:12N 40°39' W 074°08'2 2.9
2016-Jun-22 21:30N 40°40' W 074°08'3 2.8
2016-Jun-22 20:33N 40°39' W 074°06'2 1.2
2016-Jun-22 19:10N 40°38' W 074°08'0 0.0
2016-Jun-22 18:07N 40°38' W 074°08'0 0.0
2016-Jun-22 17:31N 40°38' W 074°08'0 0.0
2016-Jun-22 16:31N 40°38' W 074°08'4 1.2
2016-Jun-22 13:30N 40°37' W 074°12'4 3.8
2016-Jun-22 12:32N 40°40' W 074°09'1 1.0
2016-Jun-22 11:17N 40°41' W 074°09'1 1.5
2016-Jun-22 10:21N 40°40' W 074°09'1 0.6
2016-Jun-22 08:16N 40°38' W 074°08'0 0.0
2016-Jun-22 04:25N 40°38' W 074°08'0 0.0
2016-Jun-22 03:10N 40°38' W 074°08'2 0.4
2016-Jun-21 23:30N 40°39' W 074°06'5 5.1
2016-Jun-21 22:33N 40°41' W 074°00'7 6.2
2016-Jun-21 21:30N 40°39' W 074°08'3 2.9
2016-Jun-21 20:21N 40°42' W 074°09'3 1.2
2016-Jun-21 17:31N 40°38' W 074°08'0 0.0
2016-Jun-21 16:22N 40°38' W 074°08'0 0.1
2016-Jun-21 12:31N 40°39' W 074°07'0 0.2
2016-Jun-21 11:19N 40°38' W 074°08'0 0.2
2016-Jun-21 10:12N 40°39' W 074°08'3 4.7
2016-Jun-21 09:33N 40°40' W 074°04'0 0.2
2016-Jun-21 08:34N 40°40' W 074°04'3 1.6
2016-Jun-21 06:31N 40°38' W 074°08'0 0.0
2016-Jun-21 04:31N 40°38' W 074°08'0 0.0
2016-Jun-21 03:22N 40°38' W 074°08'0 0.0
2016-Jun-21 02:31N 40°38' W 074°08'0 0.0
2016-Jun-21 01:31N 40°38' W 074°08'0 0.0
2016-Jun-21 00:31N 40°38' W 074°08'0 0.0
2016-Jun-20 23:31N 40°38' W 074°08'0 0.0
2016-Jun-20 22:31N 40°38' W 074°08'0 0.0
2016-Jun-20 21:31N 40°38' W 074°08'1 1.2
2016-Jun-20 20:34N 40°39' W 074°09'4 4.2
2016-Jun-20 19:33N 40°38' W 074°04'3 3.3
2016-Jun-20 18:33N 40°38' W 074°08'0 0.0
2016-Jun-20 17:30N 40°38' W 074°08'0 0.0
2016-Jun-20 16:33N 40°38' W 074°08'0 0.0
2016-Jun-20 15:33N 40°38' W 074°08'0 0.0
2016-Jun-20 14:33N 40°38' W 074°08'0 0.1
2016-Jun-20 13:33N 40°39' W 074°08'1 1.0
2016-Jun-20 12:24N 40°39' W 074°06'3 3.0
2016-Jun-20 11:33N 40°39' W 074°03'5 5.2
2016-Jun-20 10:30N 40°39' W 074°10'1 0.3
2016-Jun-20 08:33N 40°39' W 074°11'2 0.3
2016-Jun-20 02:33N 40°39' W 074°09'1 0.1
2016-Jun-19 19:25N 40°38' W 074°08'0 0.0
2016-Jun-19 18:25N 40°38' W 074°08'0 0.0
2016-Jun-19 17:34N 40°38' W 074°08'0 0.0
2016-Jun-19 16:33N 40°38' W 074°08'0 0.0
2016-Jun-19 15:33N 40°38' W 074°08'0 0.0
2016-Jun-19 14:30N 40°38' W 074°08'0 0.0
2016-Jun-19 13:28N 40°38' W 074°08'8 8.4
2016-Jun-19 12:31N 40°43' W 073°59'35 8.7
2016-Jun-19 08:32N 41°02' W 073°20'1010.2
2016-Jun-19 07:33N 41°09' W 073°11'1 1.1
2016-Jun-19 06:28N 41°10' W 073°11'4 4.0
2016-Jun-19 05:29N 41°06' W 073°11'10 7.6
2016-Jun-19 04:13N 41°07' W 072°58'6 8.9
2016-Jun-19 03:33N 41°08' W 072°50'9 9.2
2016-Jun-19 02:33N 41°10' W 072°38'1010.1
2016-Jun-19 01:34N 41°12' W 072°25'1110.8
2016-Jun-19 00:33N 41°14' W 072°11'47 7.8
2016-Jun-18 18:29N 41°41' W 071°19'8 8.2
2016-Jun-18 17:30N 41°48' W 071°23'1 0.4
2016-Jun-18 15:24N 41°49' W 071°24'0 0.0
2016-Jun-18 12:30N 41°49' W 071°24'0 0.0
2016-Jun-18 10:18N 41°49' W 071°24'0 0.0
2016-Jun-18 06:30N 41°49' W 071°24'0 0.1
2016-Jun-18 03:33N 41°49' W 071°24'0 0.0
2016-Jun-18 02:29N 41°49' W 071°24'4 4.8
2016-Jun-18 01:33N 41°44' W 071°22'7 6.7
2016-Jun-18 00:33N 41°38' W 071°18'39 6.3
2016-Jun-17 18:21N 41°14' W 071°59'9 9.7
2016-Jun-17 17:25N 41°13' W 072°11'8 9.8
2016-Jun-17 16:33N 41°11' W 072°22'11 8.8
2016-Jun-17 15:21N 41°08' W 072°36'46 7.3
2016-Jun-17 09:08N 40°56' W 073°34'8 8.0
2016-Jun-17 08:06N 40°52' W 073°44'10 6.7
2016-Jun-17 06:32N 40°47' W 073°56'5 5.0
2016-Jun-17 05:33N 40°42' W 073°59'6 5.6
2016-Jun-17 04:33N 40°39' W 074°05'2 2.3
2016-Jun-17 03:32N 40°38' W 074°08'0 0.0
2016-Jun-17 02:32N 40°38' W 074°08'0 0.0
2016-Jun-17 01:32N 40°38' W 074°08'0 0.0
2016-Jun-17 00:32N 40°38' W 074°08'0 0.0
2016-Jun-16 23:32N 40°38' W 074°08'0 0.0
2016-Jun-16 22:32N 40°38' W 074°08'1 1.3
2016-Jun-16 21:34N 40°40' W 074°09'0 0.4
2016-Jun-16 20:33N 40°40' W 074°08'2 1.5
2016-Jun-16 19:32N 40°38' W 074°08'0 0.0
2016-Jun-16 18:26N 40°38' W 074°08'4 4.3
2016-Jun-16 17:32N 40°39' W 074°03'1 1.1
2016-Jun-16 16:33N 40°40' W 074°04'0 0.0
2016-Jun-16 15:33N 40°40' W 074°04'0 0.0
2016-Jun-16 14:33N 40°40' W 074°04'0 0.0
2016-Jun-16 13:33N 40°40' W 074°04'0 0.0
2016-Jun-16 12:33N 40°40' W 074°04'1 1.1
2016-Jun-16 11:32N 40°39' W 074°03'4 3.8
2016-Jun-16 10:31N 40°38' W 074°08'0 0.0
2016-Jun-16 09:31N 40°38' W 074°08'0 0.0
2016-Jun-16 08:31N 40°38' W 074°08'0 0.0
2016-Jun-16 07:31N 40°38' W 074°08'0 0.0
2016-Jun-16 06:31N 40°38' W 074°08'0 0.0
2016-Jun-16 04:31N 40°38' W 074°08'0 0.0
2016-Jun-16 03:31N 40°38' W 074°08'0 0.0
2016-Jun-16 02:31N 40°38' W 074°08'0 0.0
2016-Jun-16 01:31N 40°38' W 074°08'0 0.0
2016-Jun-16 00:31N 40°38' W 074°08'0 0.0
2016-Jun-15 23:31N 40°38' W 074°08'2 2.1
2016-Jun-15 22:31N 40°39' W 074°05'0 0.4
2016-Jun-15 21:33N 40°39' W 074°05'0 0.4
2016-Jun-15 20:33N 40°39' W 074°05'0 0.0
2016-Jun-15 19:30N 40°39' W 074°05'2 1.8
2016-Jun-15 18:33N 40°39' W 074°03'4 3.7
2016-Jun-15 17:31N 40°38' W 074°08'0 0.0
2016-Jun-15 16:31N 40°38' W 074°08'0 0.0
2016-Jun-15 15:31N 40°38' W 074°08'0 0.0
2016-Jun-15 14:28N 40°38' W 074°08'0 0.0
2016-Jun-15 13:19N 40°38' W 074°08'0 0.0
2016-Jun-15 12:31N 40°38' W 074°08'0 0.0
2016-Jun-15 11:19N 40°38' W 074°08'0 0.0
2016-Jun-15 10:31N 40°38' W 074°08'0 0.0
2016-Jun-15 09:31N 40°38' W 074°08'0 0.0
2016-Jun-15 08:31N 40°38' W 074°08'0 0.0
2016-Jun-15 07:28N 40°38' W 074°08'0 0.0
2016-Jun-15 06:31N 40°38' W 074°08'0 0.0
2016-Jun-15 05:31N 40°38' W 074°08'0 0.0
2016-Jun-15 04:31N 40°38' W 074°08'0 0.0
2016-Jun-15 03:25N 40°38' W 074°08'1 1.4
2016-Jun-15 02:23N 40°39' W 074°06'1 0.6
2016-Jun-15 01:30N 40°39' W 074°07'1 0.9
2016-Jun-15 00:32N 40°38' W 074°08'  
Track history (hours):
 
Tides and Currents Weather Stations Pressure Air Temp Water Temp Dewpoint Dewpoint Depression Visibility Wind Speed Wind Dir Waves Ship Positions

Kimberly Turecamo

Owner: Moran Towing Corporation, New Canaan, CT. More information available from US FCC via Universal Licensing System and Coast Guard Vessel Documentation Center.

Last reported at 2016-Jun-25 00:11 UTC. Time now 2016-Jun-25 03:33 UTC.
Position N 40°38' W 074°08'.

Length 33 m; draft 5 m.

Type: Towing. MMSI: 367061980.

Date/timePositionNaut miles runAvg speedWind from/ knotsBaromVisibWave heightAir tempDewpointWater temp
2016-Jun-25 00:11N 40°38' W 074°08'3 5.1
2016-Jun-24 23:33N 40°42' W 074°08'1 0.9
2016-Jun-24 22:33N 40°41' W 074°08'2 2.1
2016-Jun-24 21:33N 40°39' W 074°07'1 1.0
2016-Jun-24 20:30N 40°38' W 074°08'0 0.0
2016-Jun-24 19:33N 40°38' W 074°08'0 0.0
2016-Jun-24 18:33N 40°38' W 074°08'0 0.0
2016-Jun-24 17:33N 40°38' W 074°08'0 0.0
2016-Jun-24 16:33N 40°38' W 074°08'0 0.0
2016-Jun-24 15:33N 40°38' W 074°08'0 0.0
2016-Jun-24 14:27N 40°38' W 074°08'0 0.0
2016-Jun-24 13:33N 40°38' W 074°08'0 0.0
2016-Jun-24 12:33N 40°38' W 074°08'0 0.0
2016-Jun-24 11:33N 40°38' W 074°08'0 0.0
2016-Jun-24 10:33N 40°38' W 074°08'0 0.0
2016-Jun-24 09:33N 40°38' W 074°08'0 0.0
2016-Jun-24 08:33N 40°38' W 074°08'0 0.0
2016-Jun-24 07:33N 40°38' W 074°08'4 1.3
2016-Jun-24 04:25N 40°37' W 074°12'1 0.2
2016-Jun-24 00:09N 40°36' W 074°12'5 7.5
2016-Jun-23 23:34N 40°39' W 074°08'0 0.0
2016-Jun-23 21:25N 40°38' W 074°08'2 2.7
2016-Jun-23 20:33N 40°39' W 074°05'2 2.2
2016-Jun-23 19:31N 40°38' W 074°08'0 0.0
2016-Jun-23 18:31N 40°38' W 074°08'0 0.0
2016-Jun-23 17:28N 40°38' W 074°08'0 0.0
2016-Jun-23 16:28N 40°38' W 074°08'5 5.5
2016-Jun-23 15:32N 40°40' W 074°01'0 0.2
2016-Jun-23 14:33N 40°40' W 074°01'6 0.5
2016-Jun-23 01:22N 40°39' W 074°09'1 0.4
2016-Jun-22 23:32N 40°40' W 074°08'1 1.1
2016-Jun-22 22:12N 40°39' W 074°08'2 2.9
2016-Jun-22 21:30N 40°40' W 074°08'3 2.8
2016-Jun-22 20:33N 40°39' W 074°06'2 1.2
2016-Jun-22 19:10N 40°38' W 074°08'0 0.0
2016-Jun-22 18:07N 40°38' W 074°08'0 0.0
2016-Jun-22 17:31N 40°38' W 074°08'0 0.0
2016-Jun-22 16:31N 40°38' W 074°08'4 1.2
2016-Jun-22 13:30N 40°37' W 074°12'4 3.8
2016-Jun-22 12:32N 40°40' W 074°09'1 1.0
2016-Jun-22 11:17N 40°41' W 074°09'1 1.5
2016-Jun-22 10:21N 40°40' W 074°09'1 0.6
2016-Jun-22 08:16N 40°38' W 074°08'0 0.0
2016-Jun-22 04:25N 40°38' W 074°08'0 0.0
2016-Jun-22 03:10N 40°38' W 074°08'2 0.4
2016-Jun-21 23:30N 40°39' W 074°06'5 5.1
2016-Jun-21 22:33N 40°41' W 074°00'7 6.2
2016-Jun-21 21:30N 40°39' W 074°08'3 2.9
2016-Jun-21 20:21N 40°42' W 074°09'3 1.2
2016-Jun-21 17:31N 40°38' W 074°08'0 0.0
2016-Jun-21 16:22N 40°38' W 074°08'0 0.1
2016-Jun-21 12:31N 40°39' W 074°07'0 0.2
2016-Jun-21 11:19N 40°38' W 074°08'0 0.2
2016-Jun-21 10:12N 40°39' W 074°08'3 4.7
2016-Jun-21 09:33N 40°40' W 074°04'0 0.2
2016-Jun-21 08:34N 40°40' W 074°04'3 1.6
2016-Jun-21 06:31N 40°38' W 074°08'0 0.0
2016-Jun-21 04:31N 40°38' W 074°08'0 0.0
2016-Jun-21 03:22N 40°38' W 074°08'0 0.0
2016-Jun-21 02:31N 40°38' W 074°08'0 0.0
2016-Jun-21 01:31N 40°38' W 074°08'0 0.0
2016-Jun-21 00:31N 40°38' W 074°08'0 0.0
2016-Jun-20 23:31N 40°38' W 074°08'0 0.0
2016-Jun-20 22:31N 40°38' W 074°08'0 0.0
2016-Jun-20 21:31N 40°38' W 074°08'1 1.2
2016-Jun-20 20:34N 40°39' W 074°09'4 4.2
2016-Jun-20 19:33N 40°38' W 074°04'3 3.3
2016-Jun-20 18:33N 40°38' W 074°08'0 0.0
2016-Jun-20 17:30N 40°38' W 074°08'0 0.0
2016-Jun-20 16:33N 40°38' W 074°08'0 0.0
2016-Jun-20 15:33N 40°38' W 074°08'0 0.0
2016-Jun-20 14:33N 40°38' W 074°08'0 0.1
2016-Jun-20 13:33N 40°39' W 074°08'1 1.0
2016-Jun-20 12:24N 40°39' W 074°06'3 3.0
2016-Jun-20 11:33N 40°39' W 074°03'5 5.2
2016-Jun-20 10:30N 40°39' W 074°10'1 0.3
2016-Jun-20 08:33N 40°39' W 074°11'2 0.3
2016-Jun-20 02:33N 40°39' W 074°09'1 0.1
2016-Jun-19 19:25N 40°38' W 074°08'0 0.0
2016-Jun-19 18:25N 40°38' W 074°08'0 0.0
2016-Jun-19 17:34N 40°38' W 074°08'0 0.0
2016-Jun-19 16:33N 40°38' W 074°08'0 0.0
2016-Jun-19 15:33N 40°38' W 074°08'0 0.0
2016-Jun-19 14:30N 40°38' W 074°08'0 0.0
2016-Jun-19 13:28N 40°38' W 074°08'8 8.4
2016-Jun-19 12:31N 40°43' W 073°59'35 8.7
2016-Jun-19 08:32N 41°02' W 073°20'1010.2
2016-Jun-19 07:33N 41°09' W 073°11'1 1.1
2016-Jun-19 06:28N 41°10' W 073°11'4 4.0
2016-Jun-19 05:29N 41°06' W 073°11'10 7.6
2016-Jun-19 04:13N 41°07' W 072°58'6 8.9
2016-Jun-19 03:33N 41°08' W 072°50'9 9.2
2016-Jun-19 02:33N 41°10' W 072°38'1010.1
2016-Jun-19 01:34N 41°12' W 072°25'1110.8
2016-Jun-19 00:33N 41°14' W 072°11'47 7.8
2016-Jun-18 18:29N 41°41' W 071°19'8 8.2
2016-Jun-18 17:30N 41°48' W 071°23'1 0.4
2016-Jun-18 15:24N 41°49' W 071°24'0 0.0
2016-Jun-18 12:30N 41°49' W 071°24'0 0.0
2016-Jun-18 10:18N 41°49' W 071°24'0 0.0
2016-Jun-18 06:30N 41°49' W 071°24'0 0.1
2016-Jun-18 03:33N 41°49' W 071°24'0 0.0
2016-Jun-18 02:29N 41°49' W 071°24'4 4.8
2016-Jun-18 01:33N 41°44' W 071°22'7 6.7
2016-Jun-18 00:33N 41°38' W 071°18'39 6.3
2016-Jun-17 18:21N 41°14' W 071°59'9 9.7
2016-Jun-17 17:25N 41°13' W 072°11'8 9.8
2016-Jun-17 16:33N 41°11' W 072°22'11 8.8
2016-Jun-17 15:21N 41°08' W 072°36'46 7.3
2016-Jun-17 09:08N 40°56' W 073°34'8 8.0
2016-Jun-17 08:06N 40°52' W 073°44'10 6.7
2016-Jun-17 06:32N 40°47' W 073°56'5 5.0
2016-Jun-17 05:33N 40°42' W 073°59'6 5.6
2016-Jun-17 04:33N 40°39' W 074°05'2 2.3
2016-Jun-17 03:32N 40°38' W 074°08'0 0.0
2016-Jun-17 02:32N 40°38' W 074°08'0 0.0
2016-Jun-17 01:32N 40°38' W 074°08'0 0.0
2016-Jun-17 00:32N 40°38' W 074°08'0 0.0
2016-Jun-16 23:32N 40°38' W 074°08'0 0.0
2016-Jun-16 22:32N 40°38' W 074°08'1 1.3
2016-Jun-16 21:34N 40°40' W 074°09'0 0.4
2016-Jun-16 20:33N 40°40' W 074°08'2 1.5
2016-Jun-16 19:32N 40°38' W 074°08'0 0.0
2016-Jun-16 18:26N 40°38' W 074°08'4 4.3
2016-Jun-16 17:32N 40°39' W 074°03'1 1.1
2016-Jun-16 16:33N 40°40' W 074°04'0 0.0
2016-Jun-16 15:33N 40°40' W 074°04'0 0.0
2016-Jun-16 14:33N 40°40' W 074°04'0 0.0
2016-Jun-16 13:33N 40°40' W 074°04'0 0.0
2016-Jun-16 12:33N 40°40' W 074°04'1 1.1
2016-Jun-16 11:32N 40°39' W 074°03'4 3.8
2016-Jun-16 10:31N 40°38' W 074°08'0 0.0
2016-Jun-16 09:31N 40°38' W 074°08'0 0.0
2016-Jun-16 08:31N 40°38' W 074°08'0 0.0
2016-Jun-16 07:31N 40°38' W 074°08'0 0.0
2016-Jun-16 06:31N 40°38' W 074°08'0 0.0
2016-Jun-16 04:31N 40°38' W 074°08'0 0.0
2016-Jun-16 03:31N 40°38' W 074°08'0 0.0
2016-Jun-16 02:31N 40°38' W 074°08'0 0.0
2016-Jun-16 01:31N 40°38' W 074°08'0 0.0
2016-Jun-16 00:31N 40°38' W 074°08'0 0.0
2016-Jun-15 23:31N 40°38' W 074°08'2 2.1
2016-Jun-15 22:31N 40°39' W 074°05'0 0.4
2016-Jun-15 21:33N 40°39' W 074°05'0 0.4
2016-Jun-15 20:33N 40°39' W 074°05'0 0.0
2016-Jun-15 19:30N 40°39' W 074°05'2 1.8
2016-Jun-15 18:33N 40°39' W 074°03'4 3.7
2016-Jun-15 17:31N 40°38' W 074°08'0 0.0
2016-Jun-15 16:31N 40°38' W 074°08'0 0.0
2016-Jun-15 15:31N 40°38' W 074°08'0 0.0
2016-Jun-15 14:28N 40°38' W 074°08'0 0.0
2016-Jun-15 13:19N 40°38' W 074°08'0 0.0
2016-Jun-15 12:31N 40°38' W 074°08'0 0.0
2016-Jun-15 11:19N 40°38' W 074°08'0 0.0
2016-Jun-15 10:31N 40°38' W 074°08'0 0.0
2016-Jun-15 09:31N 40°38' W 074°08'0 0.0
2016-Jun-15 08:31N 40°38' W 074°08'0 0.0
2016-Jun-15 07:28N 40°38' W 074°08'0 0.0
2016-Jun-15 06:31N 40°38' W 074°08'0 0.0
2016-Jun-15 05:31N 40°38' W 074°08'0 0.0
2016-Jun-15 04:31N 40°38' W 074°08'0 0.0
2016-Jun-15 03:25N 40°38' W 074°08'1 1.4
2016-Jun-15 02:23N 40°39' W 074°06'1 0.6
2016-Jun-15 01:30N 40°39' W 074°07'1 0.9
2016-Jun-15 00:32N 40°38' W 074°08'  

Dump ship's entire track history